createdAt,value
2023-03-11T00:02:13.814Z,3.20
2023-03-11T00:04:40.478Z,3.20
2023-03-11T00:07:08.371Z,3.20
2023-03-11T00:09:35.394Z,3.20
2023-03-11T00:12:02.408Z,3.20
2023-03-11T00:14:29.205Z,3.10
2023-03-11T00:16:55.990Z,3.10
2023-03-11T00:19:22.739Z,3.10
2023-03-11T00:21:49.425Z,3.00
2023-03-11T00:24:16.046Z,2.90
2023-03-11T00:26:42.706Z,2.90
2023-03-11T00:29:09.313Z,2.80
2023-03-11T00:31:35.977Z,2.70
2023-03-11T00:34:02.796Z,2.60
2023-03-11T00:36:36.434Z,2.60
2023-03-11T00:39:06.666Z,2.50
2023-03-11T00:41:34.085Z,2.50
2023-03-11T00:44:00.792Z,2.40
2023-03-11T00:46:28.540Z,2.40
2023-03-11T00:48:55.300Z,2.40
2023-03-11T00:51:21.969Z,2.30
2023-03-11T00:53:48.584Z,2.20
2023-03-11T00:56:15.980Z,2.20
2023-03-11T00:58:43.510Z,2.20
2023-03-11T01:01:11.475Z,2.20
2023-03-11T01:03:38.265Z,2.20
2023-03-11T01:06:05.407Z,2.20
2023-03-11T01:08:32.444Z,2.20
2023-03-11T01:10:59.390Z,2.30
2023-03-11T01:13:27.156Z,2.40
2023-03-11T01:15:54.047Z,2.40
2023-03-11T01:18:20.717Z,2.40
2023-03-11T01:20:47.345Z,2.40
2023-03-11T01:23:14.593Z,2.40
2023-03-11T01:25:41.428Z,2.40
2023-03-11T01:28:11.133Z,2.40
2023-03-11T01:30:38.786Z,2.30
2023-03-11T01:33:05.886Z,2.30
2023-03-11T01:35:33.254Z,2.30
2023-03-11T01:38:00.227Z,2.20
2023-03-11T01:40:29.651Z,2.20
2023-03-11T01:42:56.383Z,2.20
2023-03-11T01:45:33.395Z,2.20
2023-03-11T01:48:00.137Z,2.20
2023-03-11T01:50:30.453Z,2.20
2023-03-11T01:52:57.153Z,2.20
2023-03-11T01:55:23.780Z,2.20
2023-03-11T01:57:51.778Z,2.10
2023-03-11T02:00:18.881Z,2.10
2023-03-11T02:02:51.325Z,2.10
2023-03-11T02:05:18.957Z,2.10
2023-03-11T02:07:45.617Z,2.00
2023-03-11T02:10:13.606Z,2.00
2023-03-11T02:12:40.551Z,2.00
2023-03-11T02:15:08.400Z,1.90
2023-03-11T02:17:36.432Z,1.90
2023-03-11T02:20:05.868Z,1.80
2023-03-11T02:22:35.513Z,1.80
2023-03-11T02:25:21.003Z,1.70
2023-03-11T02:27:49.144Z,1.70
2023-03-11T02:30:16.794Z,1.70
2023-03-11T02:32:44.916Z,1.60
2023-03-11T02:35:11.594Z,1.60
2023-03-11T02:37:43.414Z,1.60
2023-03-11T02:40:24.118Z,1.60
2023-03-11T02:42:51.839Z,1.60
2023-03-11T02:45:20.410Z,1.60
2023-03-11T02:47:47.004Z,1.60
2023-03-11T02:50:15.177Z,1.60
2023-03-11T02:52:41.937Z,1.50
2023-03-11T02:55:09.980Z,1.50
2023-03-11T02:57:36.961Z,1.50
2023-03-11T03:00:10.892Z,1.50
2023-03-11T03:02:37.696Z,1.50
2023-03-11T03:05:04.417Z,1.50
2023-03-11T03:07:31.079Z,1.50
2023-03-11T03:09:57.747Z,1.50
2023-03-11T03:12:24.668Z,1.40
2023-03-11T03:14:51.428Z,1.40
2023-03-11T03:17:18.152Z,1.40
2023-03-11T03:19:44.845Z,1.30
2023-03-11T03:22:11.440Z,1.30
2023-03-11T03:24:38.129Z,1.30
2023-03-11T03:27:04.855Z,1.30
2023-03-11T03:29:31.464Z,1.30
2023-03-11T03:31:58.161Z,1.30
2023-03-11T03:34:24.831Z,1.30
2023-03-11T03:36:51.486Z,1.30
2023-03-11T03:39:19.842Z,1.30
2023-03-11T03:41:46.550Z,1.20
2023-03-11T03:44:13.171Z,1.20
2023-03-11T03:46:39.800Z,1.20
2023-03-11T03:49:06.532Z,1.10
2023-03-11T03:51:34.157Z,1.20
2023-03-11T03:54:00.774Z,1.10
2023-03-11T03:56:27.368Z,1.10
2023-03-11T03:58:54.244Z,1.10
2023-03-11T04:01:20.847Z,1.10
2023-03-11T04:03:47.562Z,1.10
2023-03-11T04:06:18.955Z,1.10
2023-03-11T04:08:45.706Z,1.00
2023-03-11T04:11:12.388Z,1.00
2023-03-11T04:13:39.222Z,0.90
2023-03-11T04:16:06.704Z,1.00
2023-03-11T04:18:33.735Z,0.90
2023-03-11T04:21:00.422Z,0.90
2023-03-11T04:23:27.043Z,0.90
2023-03-11T04:25:53.736Z,0.90
2023-03-11T04:28:20.378Z,0.90
2023-03-11T04:30:47.088Z,0.90
2023-03-11T04:33:13.775Z,0.90
2023-03-11T04:35:40.489Z,0.90
2023-03-11T04:38:07.178Z,0.90
2023-03-11T04:40:33.850Z,0.80
2023-03-11T04:43:00.470Z,0.80
2023-03-11T04:45:27.076Z,0.80
2023-03-11T04:47:53.845Z,0.80
2023-03-11T04:50:21.059Z,0.70
2023-03-11T04:52:48.084Z,0.70
2023-03-11T04:55:15.182Z,0.70
2023-03-11T04:57:42.380Z,0.70
2023-03-11T05:00:11.480Z,0.60
2023-03-11T05:02:38.853Z,0.60
2023-03-11T05:05:06.032Z,0.60
2023-03-11T05:07:32.754Z,0.70
2023-03-11T05:09:59.337Z,0.70
2023-03-11T05:12:25.978Z,0.80
2023-03-11T05:14:52.590Z,0.80
2023-03-11T05:17:19.436Z,0.90
2023-03-11T05:19:46.199Z,0.90
2023-03-11T05:22:13.027Z,1.00
2023-03-11T05:24:39.670Z,1.10
2023-03-11T05:27:06.382Z,1.10
2023-03-11T05:29:33.105Z,1.20
2023-03-11T05:31:59.733Z,1.30
2023-03-11T05:34:26.410Z,1.30
2023-03-11T05:36:53.063Z,1.40
2023-03-11T05:39:19.658Z,1.40
2023-03-11T05:41:46.477Z,1.50
2023-03-11T05:44:13.148Z,1.50
2023-03-11T05:46:39.968Z,1.50
2023-03-11T05:49:06.676Z,1.50
2023-03-11T05:51:33.341Z,1.50
2023-03-11T05:54:00.350Z,1.50
2023-03-11T05:56:27.013Z,1.50
2023-03-11T05:58:53.625Z,1.50
2023-03-11T06:01:20.840Z,1.50
2023-03-11T06:03:47.573Z,1.50
2023-03-11T06:06:14.387Z,1.50
2023-03-11T06:08:45.915Z,1.50
2023-03-11T06:11:12.955Z,1.40
2023-03-11T06:13:39.597Z,1.40
2023-03-11T06:16:06.915Z,1.40
2023-03-11T06:18:33.615Z,1.40
2023-03-11T06:21:01.161Z,1.40
2023-03-11T06:23:28.343Z,1.40
2023-03-11T06:26:02.129Z,1.40
2023-03-11T06:28:29.312Z,1.40
2023-03-11T06:30:58.817Z,1.40
2023-03-11T06:33:25.499Z,1.40
2023-03-11T06:36:05.469Z,1.40
2023-03-11T06:38:32.283Z,1.50
2023-03-11T06:41:00.233Z,1.50
2023-03-11T06:43:27.263Z,1.50
2023-03-11T06:45:53.976Z,1.60
2023-03-11T06:48:20.660Z,1.70
2023-03-11T06:50:54.639Z,1.80
2023-03-11T06:53:22.448Z,1.90
2023-03-11T06:56:01.251Z,2.00
2023-03-11T06:58:27.933Z,2.20
2023-03-11T07:00:54.815Z,2.30
2023-03-11T07:03:21.422Z,2.40
2023-03-11T07:05:50.429Z,2.60
2023-03-11T07:08:17.044Z,2.70
2023-03-11T07:10:43.751Z,2.80
2023-03-11T07:13:10.383Z,2.80
2023-03-11T07:15:37.102Z,2.70
2023-03-11T07:18:03.830Z,2.70
2023-03-11T07:20:30.588Z,2.70
2023-03-11T07:22:57.238Z,2.80
2023-03-11T07:25:23.906Z,3.00
2023-03-11T07:27:50.577Z,3.10
2023-03-11T07:30:17.382Z,3.30
2023-03-11T07:32:44.077Z,3.60
2023-03-11T07:35:10.769Z,3.80
2023-03-11T07:37:37.393Z,4.10
2023-03-11T07:40:04.142Z,4.30
2023-03-11T07:42:30.779Z,4.50
2023-03-11T07:44:57.402Z,4.90
2023-03-11T07:47:24.736Z,5.00
2023-03-11T07:49:51.326Z,5.10
2023-03-11T07:52:17.956Z,5.10
2023-03-11T07:54:45.299Z,5.20
2023-03-11T07:57:16.977Z,5.10
2023-03-11T07:59:43.847Z,5.20
2023-03-11T08:02:11.083Z,5.30
2023-03-11T08:04:37.718Z,5.50
2023-03-11T08:07:04.362Z,6.00
2023-03-11T08:09:31.009Z,7.10
2023-03-11T08:11:57.642Z,8.50
2023-03-11T08:14:24.259Z,8.80
2023-03-11T08:16:50.868Z,9.90
2023-03-11T08:19:17.507Z,11.70
2023-03-11T08:21:44.114Z,13.30
2023-03-11T08:24:12.024Z,14.10
2023-03-11T08:26:38.673Z,13.60
2023-03-11T08:29:05.321Z,13.20
2023-03-11T08:31:32.672Z,13.20
2023-03-11T08:34:01.091Z,12.90
2023-03-11T08:36:28.029Z,13.00
2023-03-11T08:38:54.686Z,13.70
2023-03-11T08:41:21.413Z,14.30
2023-03-11T08:43:48.220Z,14.70
2023-03-11T08:46:17.709Z,14.90
2023-03-11T08:48:44.369Z,15.40
2023-03-11T08:51:11.913Z,15.50
2023-03-11T08:53:38.959Z,14.70
2023-03-11T08:56:05.897Z,13.70
2023-03-11T08:58:32.620Z,13.60
2023-03-11T09:00:59.279Z,14.00
2023-03-11T09:03:25.901Z,14.10
2023-03-11T09:05:59.474Z,14.70
2023-03-11T09:08:26.437Z,15.00
2023-03-11T09:10:53.044Z,15.90
2023-03-11T09:13:19.705Z,17.10
2023-03-11T09:15:47.707Z,18.30
2023-03-11T09:18:15.145Z,19.20
2023-03-11T09:20:42.041Z,19.50
2023-03-11T09:23:09.273Z,19.70
2023-03-11T09:25:36.088Z,19.70
2023-03-11T09:28:02.780Z,19.30
2023-03-11T09:30:29.465Z,18.90
2023-03-11T09:32:56.272Z,18.00
2023-03-11T09:35:23.350Z,17.70
2023-03-11T09:37:50.084Z,18.40
2023-03-11T09:40:18.608Z,18.60
2023-03-11T09:43:08.887Z,18.90
2023-03-11T09:45:39.234Z,19.30
2023-03-11T09:48:16.737Z,19.90
2023-03-11T09:50:48.778Z,20.90
2023-03-11T09:53:18.060Z,22.10
2023-03-11T09:55:46.389Z,22.70
2023-03-11T09:58:19.343Z,22.60
2023-03-11T10:00:46.816Z,21.90
2023-03-11T10:03:26.469Z,21.40
2023-03-11T10:05:55.086Z,21.00
2023-03-11T10:08:24.842Z,20.40
2023-03-11T10:11:11.663Z,19.40
2023-03-11T10:13:50.482Z,18.30
2023-03-11T10:16:25.010Z,17.30
2023-03-11T10:19:04.818Z,16.40
2023-03-11T10:21:34.487Z,15.30
2023-03-11T10:24:10.461Z,14.40
2023-03-11T10:26:42.889Z,14.20
2023-03-11T10:29:18.858Z,13.90
2023-03-11T10:31:48.604Z,13.80
2023-03-11T10:34:15.527Z,13.80
2023-03-11T10:36:45.134Z,13.70
2023-03-11T10:39:12.117Z,13.40
2023-03-11T10:41:49.479Z,12.90
2023-03-11T10:44:35.712Z,12.40
2023-03-11T10:47:02.670Z,11.70
2023-03-11T10:49:29.518Z,10.80
2023-03-11T10:51:57.186Z,10.30
2023-03-11T10:54:31.760Z,10.10
2023-03-11T10:56:59.998Z,10.00
2023-03-11T10:59:28.735Z,10.20
2023-03-11T11:01:56.631Z,10.70
2023-03-11T11:04:41.424Z,11.30
2023-03-11T11:07:28.403Z,11.60
2023-03-11T11:10:13.422Z,12.00
2023-03-11T11:12:51.510Z,12.30
2023-03-11T11:15:22.765Z,12.40
2023-03-11T11:17:49.904Z,12.80
2023-03-11T11:20:19.214Z,13.20
2023-03-11T11:22:53.318Z,13.60
2023-03-11T11:25:36.609Z,13.70
2023-03-11T11:28:14.596Z,13.60
2023-03-11T11:30:56.675Z,13.60
2023-03-11T11:33:25.581Z,13.40
2023-03-11T11:35:53.797Z,13.30
2023-03-11T11:38:22.428Z,13.20
2023-03-11T11:40:49.024Z,12.90
2023-03-11T11:43:20.133Z,12.20
2023-03-11T11:45:49.170Z,11.60
2023-03-11T11:48:34.764Z,11.20
2023-03-11T11:51:02.890Z,10.70
2023-03-11T11:53:37.061Z,10.20
2023-03-11T11:56:03.733Z,9.90
2023-03-11T11:58:30.843Z,9.50
2023-03-11T12:00:57.477Z,9.20
2023-03-11T12:03:43.670Z,9.10
2023-03-11T12:06:13.466Z,8.90
2023-03-11T12:08:45.405Z,8.70
2023-03-11T12:11:16.021Z,8.50
2023-03-11T12:13:49.382Z,8.20
2023-03-11T12:16:19.156Z,8.00
2023-03-11T12:19:10.111Z,7.90
2023-03-11T12:21:55.219Z,7.80
2023-03-11T12:24:43.772Z,7.70
2023-03-11T12:27:16.628Z,7.60
2023-03-11T12:29:45.655Z,7.40
2023-03-11T12:32:21.479Z,7.20
2023-03-11T12:34:48.944Z,7.10
2023-03-11T12:37:18.665Z,7.00
2023-03-11T12:39:45.302Z,7.00
2023-03-11T12:42:11.924Z,6.90
2023-03-11T12:44:39.401Z,6.90
2023-03-11T12:47:09.902Z,6.90
2023-03-11T12:49:37.906Z,6.90
2023-03-11T12:52:05.998Z,6.80
2023-03-11T12:54:34.315Z,6.80
2023-03-11T12:57:24.324Z,6.80
2023-03-11T13:00:07.719Z,6.70
2023-03-11T13:02:53.189Z,6.70
2023-03-11T13:05:38.220Z,6.70
2023-03-11T13:08:12.526Z,6.70
2023-03-11T13:10:39.226Z,6.70
2023-03-11T13:13:24.779Z,6.70
2023-03-11T13:15:51.870Z,6.80
2023-03-11T13:18:24.121Z,6.80
2023-03-11T13:20:56.152Z,6.80
2023-03-11T13:23:26.004Z,6.80
2023-03-11T13:25:55.548Z,6.80
2023-03-11T13:28:40.966Z,6.70
2023-03-11T13:31:13.697Z,6.70
2023-03-11T13:33:43.362Z,6.60
2023-03-11T13:36:14.617Z,6.60
2023-03-11T13:38:47.425Z,6.70
2023-03-11T13:41:16.153Z,6.70
2023-03-11T13:43:50.209Z,6.70
2023-03-11T13:46:28.910Z,6.60
2023-03-11T13:49:00.623Z,6.60
2023-03-11T13:51:32.948Z,6.50
2023-03-11T13:54:02.154Z,6.50
2023-03-11T13:56:31.377Z,6.40
2023-03-11T13:59:17.575Z,6.40
2023-03-11T14:01:55.919Z,6.40
2023-03-11T14:04:28.266Z,6.40
2023-03-11T14:06:55.035Z,6.30
2023-03-11T14:09:23.253Z,6.30
2023-03-11T14:11:49.947Z,6.20
2023-03-11T14:14:28.141Z,6.20
2023-03-11T14:16:55.535Z,6.20
2023-03-11T14:19:23.417Z,6.20
2023-03-11T14:21:51.575Z,6.10
2023-03-11T14:24:29.742Z,6.10
2023-03-11T14:26:58.178Z,6.10
2023-03-11T14:29:32.878Z,6.10
2023-03-11T14:31:59.610Z,6.10
2023-03-11T14:34:28.799Z,6.00
2023-03-11T14:36:57.295Z,6.00
2023-03-11T14:39:37.686Z,6.00
2023-03-11T14:42:04.271Z,5.90
2023-03-11T14:44:32.421Z,5.90
2023-03-11T14:47:17.521Z,5.80
2023-03-11T14:49:44.869Z,5.80
2023-03-11T14:52:16.939Z,5.80
2023-03-11T14:54:44.405Z,5.80
2023-03-11T14:57:24.496Z,5.80
2023-03-11T14:59:51.428Z,5.80
2023-03-11T15:02:30.932Z,5.80
2023-03-11T15:04:59.492Z,5.80
2023-03-11T15:07:27.425Z,5.80
2023-03-11T15:09:54.226Z,5.70
2023-03-11T15:12:35.366Z,5.70
2023-03-11T15:15:02.012Z,5.60
2023-03-11T15:17:42.872Z,5.60
2023-03-11T15:20:29.420Z,5.50
2023-03-11T15:22:58.277Z,5.50
2023-03-11T15:25:24.937Z,5.40
2023-03-11T15:27:51.568Z,5.40
2023-03-11T15:30:18.362Z,5.30
2023-03-11T15:32:45.615Z,5.30
2023-03-11T15:35:24.141Z,5.20
2023-03-11T15:38:10.827Z,5.20
2023-03-11T15:40:45.281Z,5.10
2023-03-11T15:43:19.945Z,5.00
2023-03-11T15:45:46.647Z,4.90
2023-03-11T15:48:13.712Z,4.80
2023-03-11T15:50:52.918Z,4.70
2023-03-11T15:53:20.844Z,4.70
2023-03-11T15:55:48.123Z,4.70
2023-03-11T15:58:16.698Z,4.60
2023-03-11T16:00:50.744Z,4.50
2023-03-11T16:03:17.711Z,4.50
2023-03-11T16:05:44.368Z,4.50
2023-03-11T16:08:11.015Z,4.40
2023-03-11T16:10:38.089Z,4.40
2023-03-11T16:13:04.801Z,4.40
2023-03-11T16:15:35.657Z,4.40
2023-03-11T16:18:03.827Z,4.30
2023-03-11T16:20:32.289Z,4.30
2023-03-11T16:22:59.469Z,4.40
2023-03-11T16:25:36.811Z,4.40
2023-03-11T16:28:03.716Z,4.40
2023-03-11T16:30:31.197Z,4.40
2023-03-11T16:32:58.077Z,4.40
2023-03-11T16:35:25.239Z,4.40
2023-03-11T16:37:52.197Z,4.40
2023-03-11T16:40:25.210Z,4.40
2023-03-11T16:42:54.499Z,4.30
2023-03-11T16:45:21.179Z,4.30
2023-03-11T16:47:47.819Z,4.30
2023-03-11T16:50:14.432Z,4.20
2023-03-11T16:52:41.130Z,4.20
2023-03-11T16:55:08.186Z,4.20
2023-03-11T16:57:34.771Z,4.10
2023-03-11T17:00:01.940Z,4.10
2023-03-11T17:02:28.571Z,4.00
2023-03-11T17:04:55.775Z,4.00
2023-03-11T17:07:24.143Z,3.90
2023-03-11T17:09:51.578Z,3.90
2023-03-11T17:12:19.177Z,3.80
2023-03-11T17:14:46.212Z,3.80
2023-03-11T17:17:12.939Z,3.80
2023-03-11T17:19:39.646Z,3.70
2023-03-11T17:22:06.304Z,3.70
2023-03-11T17:24:32.974Z,3.70
2023-03-11T17:26:59.602Z,3.60
2023-03-11T17:29:26.256Z,3.60
2023-03-11T17:31:53.059Z,3.60
2023-03-11T17:34:19.770Z,3.50
2023-03-11T17:36:46.400Z,3.50
2023-03-11T17:39:13.233Z,3.50
2023-03-11T17:41:39.821Z,3.40
2023-03-11T17:44:06.999Z,3.40
2023-03-11T17:46:36.220Z,3.40
2023-03-11T17:49:03.040Z,3.40
2023-03-11T17:51:29.659Z,3.30
2023-03-11T17:53:56.321Z,3.30
2023-03-11T17:56:23.296Z,3.30
2023-03-11T17:58:50.321Z,3.30
2023-03-11T18:01:18.966Z,3.30
2023-03-11T18:03:45.728Z,3.20
2023-03-11T18:06:12.910Z,3.20
2023-03-11T18:08:39.841Z,3.20
2023-03-11T18:11:18.880Z,3.20
2023-03-11T18:13:46.403Z,3.10
2023-03-11T18:16:17.798Z,3.10
2023-03-11T18:18:44.485Z,3.00
2023-03-11T18:21:21.425Z,3.00
2023-03-11T18:23:48.477Z,3.00
2023-03-11T18:26:18.796Z,3.00
2023-03-11T18:28:45.841Z,3.00
2023-03-11T18:31:17.454Z,3.00
2023-03-11T18:33:49.057Z,3.00
2023-03-11T18:36:17.280Z,3.00
2023-03-11T18:38:44.080Z,2.90
2023-03-11T18:41:10.743Z,2.80
2023-03-11T18:43:37.525Z,2.80
2023-03-11T18:46:07.708Z,2.80
2023-03-11T18:48:34.390Z,2.70
2023-03-11T18:51:01.017Z,2.60
2023-03-11T18:53:27.643Z,2.60
2023-03-11T18:56:01.619Z,2.50
2023-03-11T18:58:29.030Z,2.50
2023-03-11T19:00:55.649Z,2.40
2023-03-11T19:03:22.270Z,2.40
2023-03-11T19:05:50.825Z,2.30
2023-03-11T19:08:17.638Z,2.30
2023-03-11T19:10:44.285Z,2.20
2023-03-11T19:13:10.921Z,2.20
2023-03-11T19:15:41.090Z,2.10
2023-03-11T19:18:08.129Z,2.10
2023-03-11T19:20:35.110Z,2.10
2023-03-11T19:23:01.799Z,2.10
2023-03-11T19:25:28.600Z,2.10
2023-03-11T19:27:55.858Z,2.00
2023-03-11T19:30:22.538Z,2.00
2023-03-11T19:32:52.686Z,2.00
2023-03-11T19:35:20.950Z,2.00
2023-03-11T19:37:48.106Z,2.00
2023-03-11T19:40:14.996Z,2.00
2023-03-11T19:42:41.761Z,2.10
2023-03-11T19:45:08.732Z,2.10
2023-03-11T19:47:35.452Z,2.10
2023-03-11T19:50:02.167Z,2.10
2023-03-11T19:52:28.940Z,2.20
2023-03-11T19:54:55.619Z,2.20
2023-03-11T19:57:22.262Z,2.20
2023-03-11T19:59:48.978Z,2.20
2023-03-11T20:02:16.454Z,2.20
2023-03-11T20:04:43.586Z,2.20
2023-03-11T20:07:10.312Z,2.20
2023-03-11T20:09:36.945Z,2.30
2023-03-11T20:12:03.786Z,2.20
2023-03-11T20:14:30.435Z,2.20
2023-03-11T20:16:57.091Z,2.20
2023-03-11T20:19:23.774Z,2.20
2023-03-11T20:21:50.488Z,2.10
2023-03-11T20:24:17.269Z,2.10
2023-03-11T20:26:44.259Z,2.10
2023-03-11T20:29:11.125Z,2.00
2023-03-11T20:31:37.957Z,2.00
2023-03-11T20:34:04.976Z,1.90
2023-03-11T20:36:33.169Z,1.90
2023-03-11T20:39:00.161Z,1.80
2023-03-11T20:41:27.478Z,1.80
2023-03-11T20:43:55.675Z,1.70
2023-03-11T20:46:22.671Z,1.70
2023-03-11T20:48:49.471Z,1.60
2023-03-11T20:51:19.486Z,1.50
2023-03-11T20:53:47.213Z,1.50
2023-03-11T20:56:15.055Z,1.40
2023-03-11T20:58:42.366Z,1.40
2023-03-11T21:01:17.435Z,1.30
2023-03-11T21:03:44.478Z,1.30
2023-03-11T21:06:22.636Z,1.20
2023-03-11T21:08:49.665Z,1.10
2023-03-11T21:11:16.943Z,1.10
2023-03-11T21:13:43.587Z,1.10
2023-03-11T21:16:10.514Z,1.10
2023-03-11T21:18:37.712Z,1.10
2023-03-11T21:21:08.168Z,1.10
2023-03-11T21:23:35.843Z,1.10
2023-03-11T21:26:04.179Z,1.10
2023-03-11T21:28:31.288Z,1.10
2023-03-11T21:30:58.945Z,1.10
2023-03-11T21:33:25.817Z,1.10
2023-03-11T21:35:56.738Z,1.00
2023-03-11T21:38:24.300Z,1.00
2023-03-11T21:40:51.502Z,1.00
2023-03-11T21:43:18.935Z,1.00
2023-03-11T21:45:46.895Z,0.90
2023-03-11T21:48:14.237Z,0.90
2023-03-11T21:50:41.354Z,0.90
2023-03-11T21:53:08.122Z,0.80
2023-03-11T21:55:34.890Z,0.80
2023-03-11T21:58:01.617Z,0.70
2023-03-11T22:00:28.451Z,0.70
2023-03-11T22:02:55.260Z,0.60
2023-03-11T22:05:22.145Z,0.60
2023-03-11T22:07:48.862Z,0.60
2023-03-11T22:10:15.782Z,0.60
2023-03-11T22:12:42.467Z,0.50
2023-03-11T22:15:09.318Z,0.50
2023-03-11T22:17:36.715Z,0.40
2023-03-11T22:20:05.620Z,0.40
2023-03-11T22:22:32.655Z,0.40
2023-03-11T22:24:59.354Z,0.30
2023-03-11T22:27:26.077Z,0.20
2023-03-11T22:29:52.926Z,0.20
2023-03-11T22:32:19.765Z,0.20
2023-03-11T22:34:46.539Z,0.10
2023-03-11T22:37:13.228Z,0.10
2023-03-11T22:39:39.898Z,0.10
2023-03-11T22:42:06.689Z,0.10
2023-03-11T22:44:33.490Z,0.10
2023-03-11T22:47:00.366Z,0.00
2023-03-11T22:49:27.026Z,0.00
2023-03-11T22:51:53.843Z,0.00
2023-03-11T22:54:23.616Z,-0.10
2023-03-11T22:56:50.256Z,-0.10
2023-03-11T22:59:16.845Z,-0.10
2023-03-11T23:01:43.464Z,-0.10
2023-03-11T23:04:10.204Z,-0.20
2023-03-11T23:06:36.891Z,-0.20
2023-03-11T23:09:04.021Z,-0.20
2023-03-11T23:11:30.811Z,-0.30
2023-03-11T23:13:57.600Z,-0.30
2023-03-11T23:16:26.032Z,-0.30
2023-03-11T23:18:54.116Z,-0.40
2023-03-11T23:21:24.717Z,-0.40
2023-03-11T23:23:52.935Z,-0.40
2023-03-11T23:26:20.335Z,-0.30
2023-03-11T23:28:47.764Z,-0.30
2023-03-11T23:31:15.276Z,-0.20
2023-03-11T23:33:42.283Z,-0.10
2023-03-11T23:36:10.668Z,-0.10
2023-03-11T23:38:37.788Z,-0.10
2023-03-11T23:41:12.598Z,0.00
2023-03-11T23:43:39.730Z,0.00
2023-03-11T23:46:06.643Z,0.10
2023-03-11T23:48:33.917Z,0.10
2023-03-11T23:51:00.693Z,0.10
2023-03-11T23:53:27.579Z,0.10
2023-03-11T23:55:54.480Z,0.10
2023-03-11T23:58:21.847Z,0.10
